Time;durP1;ratioP1;P1;durP2;ratioP2;P2;SDS_P1;SDS_P2;PMS_P1;PMS_P2;Temp;Humidity;BMP_temperature;BMP_pressure;BME280_temperature;BME280_humidity;BME280_pressure;Samples;Min_cycle;Max_cycle;Signal;HPM_P1;HPM_P2
2021/07/11 00:00:48;;;;;;;;;;;;;;;29.25;43.47;100532.38;5079035;28;1067;-40
2021/07/11 00:03:13;;;;;;;;;;;;;;;29.27;43.18;100533.00;5078261;28;971;-34
2021/07/11 00:05:38;;;;;;;;;;;;;;;29.14;43.68;100523.81;5077893;28;994;-34
2021/07/11 00:08:04;;;;;;;;;;;;;;;29.25;43.55;100516.13;5078524;28;1914;-42
2021/07/11 00:10:29;;;;;;;;;;;;;;;29.20;43.71;100520.28;5078754;28;843;-36
2021/07/11 00:12:55;;;;;;;;;;;;;;;29.18;43.67;100516.09;5078221;28;744;-37
2021/07/11 00:15:22;;;;;;;;;;;;;;;29.28;43.50;100518.44;5077832;28;850;-35
2021/07/11 00:17:47;;;;;;;;;;;;;;;29.20;43.80;100516.72;5078347;28;804;-42
2021/07/11 00:20:13;;;;;;;;;;;;;;;29.23;43.75;100512.81;5077683;28;1009;-41
2021/07/11 00:22:39;;;;;;;;;;;;;;;29.24;44.05;100512.59;5078580;28;827;-42
2021/07/11 00:25:04;;;;;;;;;;;;;;;29.28;44.02;100508.44;5078262;28;852;-41
2021/07/11 00:27:29;;;;;;;;;;;;;;;29.24;44.25;100512.59;5077549;28;1910;-39
2021/07/11 00:29:55;;;;;;;;;;;;;;;29.26;44.25;100507.78;5078335;28;776;-42
2021/07/11 00:32:20;;;;;;;;;;;;;;;29.23;44.36;100510.09;5078419;28;835;-37
2021/07/11 00:34:45;;;;;;;;;;;;;;;29.27;44.42;100495.94;5077595;28;1009;-37
2021/07/11 00:37:10;;;;;;;;;;;;;;;29.19;44.86;100496.97;5077814;28;804;-35
2021/07/11 00:39:36;;;;;;;;;;;;;;;29.25;44.92;100499.88;5078246;28;760;-37
2021/07/11 00:42:01;;;;;;;;;;;;;;;29.30;44.56;100500.09;5077564;28;844;-36
2021/07/11 00:44:26;;;;;;;;;;;;;;;29.23;45.01;100496.56;5077505;28;752;-38
2021/07/11 00:46:52;;;;;;;;;;;;;;;29.31;44.68;100504.50;5078182;28;760;-42
2021/07/11 00:49:17;;;;;;;;;;;;;;;29.25;45.11;100498.00;5077452;28;1970;-38
2021/07/11 00:51:42;;;;;;;;;;;;;;;29.29;44.83;100491.16;5077820;28;787;-38
2021/07/11 00:54:08;;;;;;;;;;;;;;;29.24;45.29;100490.94;5077552;28;864;-43
2021/07/11 00:56:33;;;;;;;;;;;;;;;29.20;45.26;100492.34;5077380;28;1152;-37
2021/07/11 00:58:58;;;;;;;;;;;;;;;29.25;45.20;100483.63;5077518;28;811;-39
2021/07/11 01:01:26;;;;;;;;;;;;;;;29.21;45.37;100489.44;5059904;28;736;-38
2021/07/11 01:03:51;;;;;;;;;;;;;;;29.27;45.04;100485.09;5059050;28;1011;-37
2021/07/11 01:06:16;;;;;;;;;;;;;;;29.32;45.08;100481.78;5059058;28;756;-42
2021/07/11 01:08:48;;;;;;;;;;;;;;;29.32;44.99;100481.78;5077350;28;1906;-42
2021/07/11 01:11:13;;;;;;;;;;;;;;;29.24;45.09;100484.66;5077513;28;756;-40
2021/07/11 01:13:38;;;;;;;;;;;;;;;29.28;44.99;100483.22;5058979;28;1139;-37
2021/07/11 01:16:05;;;;;;;;;;;;;;;29.32;45.06;100482.63;5077311;28;755;-38
2021/07/11 01:18:31;;;;;;;;;;;;;;;29.33;44.82;100492.41;5076824;28;963;-36
2021/07/11 01:21:03;;;;;;;;;;;;;;;29.28;44.71;100486.75;5058848;28;1080;-38
2021/07/11 01:23:37;;;;;;;;;;;;;;;29.29;44.88;100476.75;5076986;28;760;-37
2021/07/11 01:26:03;;;;;;;;;;;;;;;29.32;44.91;100482.63;5077331;28;787;-37
2021/07/11 01:28:28;;;;;;;;;;;;;;;29.37;44.72;100483.84;5076776;28;1902;-39
2021/07/11 01:30:54;;;;;;;;;;;;;;;29.30;44.94;100481.13;5058946;28;906;-42
2021/07/11 01:33:20;;;;;;;;;;;;;;;29.30;44.73;100481.97;5059058;28;791;-38
2021/07/11 01:35:45;;;;;;;;;;;;;;;29.32;44.96;100479.06;5058844;28;959;-35
2021/07/11 01:38:11;;;;;;;;;;;;;;;29.27;44.99;100482.38;5076827;28;816;-36
2021/07/11 01:40:36;;;;;;;;;;;;;;;29.29;45.02;100472.19;5059310;28;752;-35
2021/07/11 01:43:01;;;;;;;;;;;;;;;29.35;44.82;100470.50;5077176;28;731;-35
2021/07/11 01:45:27;;;;;;;;;;;;;;;29.29;44.92;100471.34;5076814;28;788;-39
2021/07/11 01:47:52;;;;;;;;;;;;;;;29.30;45.05;100476.56;5076845;28;1897;-37
2021/07/11 01:50:17;;;;;;;;;;;;;;;29.40;44.85;100468.03;5076326;28;943;-42
2021/07/11 01:52:43;;;;;;;;;;;;;;;29.17;45.59;100465.69;5076837;28;803;-42
2021/07/11 01:55:09;;;;;;;;;;;;;;;29.17;45.62;100465.69;5058371;28;1291;-42
2021/07/11 01:57:35;;;;;;;;;;;;;;;29.27;45.41;100455.28;5057904;28;788;-38
2021/07/11 02:00:00;;;;;;;;;;;;;;;29.30;45.35;100464.88;5076869;28;752;-42
2021/07/11 02:02:25;;;;;;;;;;;;;;;29.25;45.69;100462.78;5076759;28;859;-40
2021/07/11 02:04:51;;;;;;;;;;;;;;;29.24;45.43;100461.13;5075940;28;962;-38
2021/07/11 02:07:16;;;;;;;;;;;;;;;29.29;45.47;100465.94;5076469;28;1972;-36
2021/07/11 02:09:41;;;;;;;;;;;;;;;29.29;45.61;100469.47;5076802;28;805;-38
2021/07/11 02:12:07;;;;;;;;;;;;;;;29.24;45.76;100468.41;5057347;28;862;-42
2021/07/11 02:14:32;;;;;;;;;;;;;;;29.26;45.49;100469.06;5077070;28;850;-35
2021/07/11 02:17:02;;;;;;;;;;;;;;;29.29;45.57;100471.34;5059212;28;836;-36
2021/07/11 02:19:33;;;;;;;;;;;;;;;29.31;45.83;100464.66;5075288;28;1006;-37
2021/07/11 02:21:58;;;;;;;;;;;;;;;29.29;45.79;100458.66;5076652;28;760;-36
2021/07/11 02:24:23;;;;;;;;;;;;;;;29.25;46.01;100461.94;5058216;28;832;-33
2021/07/11 02:26:49;;;;;;;;;;;;;;;29.29;45.89;100457.81;5057991;28;820;-41
2021/07/11 02:29:14;;;;;;;;;;;;;;;29.24;46.05;100466.53;5058644;28;1969;-42
2021/07/11 02:31:41;;;;;;;;;;;;;;;29.37;45.82;100452.19;5076350;28;739;-38
2021/07/11 02:34:07;;;;;;;;;;;;;;;29.33;45.75;100453.63;5075744;28;1018;-37
2021/07/11 02:36:32;;;;;;;;;;;;;;;29.41;45.71;100460.75;5076541;28;795;-36
2021/07/11 02:39:07;;;;;;;;;;;;;;;29.32;46.03;100458.22;5076161;28;851;-40
2021/07/11 02:41:32;;;;;;;;;;;;;;;29.32;46.19;100465.50;5076045;28;819;-36
2021/07/11 02:43:58;;;;;;;;;;;;;;;29.36;46.12;100458.66;5076726;28;810;-36
2021/07/11 02:46:25;;;;;;;;;;;;;;;29.45;46.04;100465.53;5076326;28;755;-42
2021/07/11 02:48:50;;;;;;;;;;;;;;;29.46;45.30;100466.38;5075748;28;1969;-42
2021/07/11 02:51:16;;;;;;;;;;;;;;;29.29;39.91;100461.34;5058212;28;842;-39
2021/07/11 02:53:42;;;;;;;;;;;;;;;29.14;39.89;100466.09;5075975;28;819;-36
2021/07/11 02:56:08;;;;;;;;;;;;;;;29.18;41.60;100468.19;5075897;28;1076;-41
2021/07/11 02:58:33;;;;;;;;;;;;;;;29.27;42.37;100466.13;5058080;28;823;-36
2021/07/11 03:00:58;;;;;;;;;;;;;;;29.25;42.47;100465.50;5058127;28;1101;-42
2021/07/11 03:03:23;;;;;;;;;;;;;;;29.27;42.23;100471.56;5074947;28;1009;-42
2021/07/11 03:05:49;;;;;;;;;;;;;;;29.24;42.41;100471.97;5076070;28;1107;-41
2021/07/11 03:08:14;;;;;;;;;;;;;;;29.32;42.31;100458.22;5078006;28;1984;-36
2021/07/11 03:10:39;;;;;;;;;;;;;;;29.27;42.42;100468.00;5079609;28;792;-41
2021/07/11 03:13:05;;;;;;;;;;;;;;;29.30;42.19;100473.84;5062234;28;760;-42
2021/07/11 03:15:30;;;;;;;;;;;;;;;29.34;42.21;100469.69;5061161;28;815;-42
2021/07/11 03:17:55;;;;;;;;;;;;;;;28.92;40.67;100469.75;5079479;28;815;-43
2021/07/11 03:20:20;;;;;;;;;;;;;;;28.52;40.39;100466.84;5078953;28;939;-42
2021/07/11 03:22:46;;;;;;;;;;;;;;;28.34;40.21;100466.31;5061322;28;819;-42
2021/07/11 03:25:11;;;;;;;;;;;;;;;28.14;40.17;100463.47;5061319;28;835;-42
2021/07/11 03:27:37;;;;;;;;;;;;;;;27.96;40.34;100466.66;5079209;28;1909;-42
2021/07/11 03:30:10;;;;;;;;;;;;;;;27.94;40.17;100460.59;5061681;28;768;-42
2021/07/11 03:32:43;;;;;;;;;;;;;;;27.93;40.33;100473.28;5079123;28;787;-40
2021/07/11 03:35:09;;;;;;;;;;;;;;;27.72;41.14;100472.28;5060987;28;1002;-42
2021/07/11 03:37:35;;;;;;;;;;;;;;;27.72;41.78;100472.28;5079143;28;863;-42
2021/07/11 03:40:00;;;;;;;;;;;;;;;27.74;42.04;100472.09;5060823;28;828;-42
2021/07/11 03:42:25;;;;;;;;;;;;;;;27.48;43.10;100492.38;5079040;28;771;-42
2021/07/11 03:44:55;;;;;;;;;;;;;;;27.80;42.31;100486.66;5061766;28;779;-42
2021/07/11 03:47:20;;;;;;;;;;;;;;;27.26;43.66;100484.22;5078502;28;1983;-41
2021/07/11 03:49:47;;;;;;;;;;;;;;;27.08;44.44;100479.25;5078635;28;978;-40
2021/07/11 03:52:13;;;;;;;;;;;;;;;26.99;44.32;100484.72;5061204;28;748;-41
2021/07/11 03:54:38;;;;;;;;;;;;;;;27.72;43.12;100483.09;5060663;28;1047;-31
2021/07/11 03:57:03;;;;;;;;;;;;;;;28.20;42.10;100478.06;5060868;28;828;-36
2021/07/11 03:59:32;;;;;;;;;;;;;;;28.34;42.03;100471.72;5079146;28;740;-42
2021/07/11 04:01:57;;;;;;;;;;;;;;;28.34;41.58;100481.72;5060540;28;824;-33
2021/07/11 04:04:23;;;;;;;;;;;;;;;28.47;41.28;100480.97;5060075;28;978;-41
2021/07/11 04:06:48;;;;;;;;;;;;;;;28.54;40.91;100478.31;5060899;28;768;-33
2021/07/11 04:09:15;;;;;;;;;;;;;;;28.53;40.79;100476.66;5078623;28;1981;-35
2021/07/11 04:11:41;;;;;;;;;;;;;;;28.38;41.58;100477.56;5060068;28;867;-38
2021/07/11 04:14:06;;;;;;;;;;;;;;;27.35;40.39;100476.84;5079110;28;760;-36
2021/07/11 04:16:32;;;;;;;;;;;;;;;26.38;39.04;100474.97;5060903;28;753;-37
2021/07/11 04:18:57;;;;;;;;;;;;;;;26.04;41.90;100475.28;5076985;28;963;-39
2021/07/11 04:21:23;;;;;;;;;;;;;;;25.78;42.94;100484.59;5078347;28;820;-41
2021/07/11 04:23:48;;;;;;;;;;;;;;;25.52;44.15;100466.91;5078340;28;736;-38
2021/07/11 04:26:13;;;;;;;;;;;;;;;25.27;44.94;100467.09;5060527;28;780;-40
2021/07/11 04:28:42;;;;;;;;;;;;;;;25.10;45.52;100473.56;5078406;28;1901;-38
2021/07/11 04:31:07;;;;;;;;;;;;;;;23.10;50.00;100469.97;5077619;28;796;-38
2021/07/11 04:33:32;;;;;;;;;;;;;;;20.57;59.87;100467.22;5059543;28;922;-39
2021/07/11 04:35:58;;;;;;;;;;;;;;;20.21;61.78;100460.69;5078260;28;821;-37
2021/07/11 04:38:23;;;;;;;;;;;;;;;20.25;62.35;100455.91;5077797;28;502;-37
2021/07/11 04:40:49;;;;;;;;;;;;;;;20.14;63.04;100456.88;5077843;28;748;-39
2021/07/11 04:43:16;;;;;;;;;;;;;;;20.14;63.44;100464.91;5078150;28;744;-40
2021/07/11 04:45:42;;;;;;;;;;;;;;;22.61;57.70;100471.41;5076488;28;1107;-38
2021/07/11 04:48:07;;;;;;;;;;;;;;;22.57;53.22;100467.31;5077597;28;1901;-40
2021/07/11 04:50:32;;;;;;;;;;;;;;;20.42;61.20;100473.00;5076705;28;1018;-40
2021/07/11 04:52:57;;;;;;;;;;;;;;;20.26;62.91;100470.94;5077133;28;993;-39
2021/07/11 04:55:23;;;;;;;;;;;;;;;20.14;63.80;100473.75;5077425;28;1064;-40
2021/07/11 04:57:48;;;;;;;;;;;;;;;20.16;64.01;100468.28;5077224;28;751;-39
2021/07/11 05:00:13;;;;;;;;;;;;;;;20.13;63.97;100471.22;5077417;28;831;-40
2021/07/11 05:02:39;;;;;;;;;;;;;;;20.06;63.57;100476.31;5063836;28;736;-37
2021/07/11 05:05:05;;;;;;;;;;;;;;;20.16;65.41;100471.81;5071657;28;1010;-32
2021/07/11 05:07:30;;;;;;;;;;;;;;;23.47;52.70;100485.84;5077603;28;1914;-42
2021/07/11 05:09:55;;;;;;;;;;;;;;;20.65;59.35;100480.69;5077179;28;767;-33
2021/07/11 05:12:20;;;;;;;;;;;;;;;19.47;62.04;100474.41;5077280;28;874;-35
2021/07/11 05:14:46;;;;;;;;;;;;;;;19.29;63.02;100479.59;5077074;28;898;-39
2021/07/11 05:17:11;;;;;;;;;;;;;;;21.16;60.72;100486.53;5077213;28;746;-37
2021/07/11 05:19:37;;;;;;;;;;;;;;;23.39;49.62;100488.47;5076841;28;1013;-33
2021/07/11 05:22:03;;;;;;;;;;;;;;;20.05;60.80;100486.13;5077105;28;624;-45
2021/07/11 05:24:28;;;;;;;;;;;;;;;19.31;63.19;100497.16;5077132;28;768;-35
2021/07/11 05:26:53;;;;;;;;;;;;;;;19.08;63.84;100504.50;5077444;28;791;-35
2021/07/11 05:29:18;;;;;;;;;;;;;;;19.00;64.13;100504.31;5077231;28;1905;-36
2021/07/11 05:31:44;;;;;;;;;;;;;;;20.30;63.44;100502.53;5075827;28;803;-36
2021/07/11 05:34:09;;;;;;;;;;;;;;;23.25;52.47;100504.22;5076716;28;1006;-37
2021/07/11 05:36:34;;;;;;;;;;;;;;;19.87;60.90;100496.66;5076988;28;740;-31
2021/07/11 05:38:59;;;;;;;;;;;;;;;19.15;63.54;100499.50;5076923;28;795;-36
2021/07/11 05:41:25;;;;;;;;;;;;;;;18.96;63.99;100498.41;5076699;28;803;-42
2021/07/11 05:43:50;;;;;;;;;;;;;;;20.25;63.55;100494.13;5077119;28;820;-33
2021/07/11 05:46:15;;;;;;;;;;;;;;;23.14;52.24;100505.31;5076413;28;1534;-38
2021/07/11 05:48:40;;;;;;;;;;;;;;;19.63;61.10;100495.25;5076079;28;1906;-36
2021/07/11 05:51:06;;;;;;;;;;;;;;;19.09;63.51;100507.00;5076802;28;799;-36
2021/07/11 05:53:31;;;;;;;;;;;;;;;18.95;64.25;100504.72;5076673;28;771;-41
2021/07/11 05:55:56;;;;;;;;;;;;;;;19.00;64.34;100498.97;5076597;28;1159;-36
2021/07/11 05:58:22;;;;;;;;;;;;;;;19.74;65.50;100496.94;5077002;28;787;-37
2021/07/11 06:00:47;;;;;;;;;;;;;;;22.75;53.81;100499.47;5076576;28;787;-34
2021/07/11 06:03:12;;;;;;;;;;;;;;;19.90;60.51;100504.38;5075010;28;1470;-43
2021/07/11 06:05:38;;;;;;;;;;;;;;;19.03;63.90;100502.22;5076337;28;954;-36
2021/07/11 06:08:06;;;;;;;;;;;;;;;20.28;60.63;100493.84;5076532;28;1909;-38
2021/07/11 06:10:31;;;;;;;;;;;;;;;22.97;52.88;100507.13;5076914;28;823;-37
2021/07/11 06:12:56;;;;;;;;;;;;;;;23.24;48.96;100508.72;5076171;28;879;-37
2021/07/11 06:15:22;;;;;;;;;;;;;;;23.17;47.78;100502.31;5076203;28;799;-35
2021/07/11 06:17:47;;;;;;;;;;;;;;;23.09;47.12;100502.28;5076423;28;867;-36
2021/07/11 06:20:12;;;;;;;;;;;;;;;23.20;46.30;100501.16;5076358;28;951;-38
2021/07/11 06:22:38;;;;;;;;;;;;;;;23.19;46.01;100502.19;5076429;28;710;-38
2021/07/11 06:25:06;;;;;;;;;;;;;;;23.90;47.36;100506.38;5076447;28;824;-36
2021/07/11 06:27:38;;;;;;;;;;;;;;;24.37;49.14;100509.41;5076338;28;1914;-37
2021/07/11 06:30:04;;;;;;;;;;;;;;;24.81;45.62;100506.28;5076230;28;843;-37
2021/07/11 06:32:29;;;;;;;;;;;;;;;23.69;48.24;100505.84;5076504;28;692;-36
2021/07/11 06:34:54;;;;;;;;;;;;;;;20.67;54.33;100497.38;5076176;28;1009;-42
2021/07/11 06:37:20;;;;;;;;;;;;;;;19.94;56.41;100507.59;5076453;28;805;-39
2021/07/11 06:39:45;;;;;;;;;;;;;;;19.68;56.99;100500.16;5076165;28;870;-36
2021/07/11 06:42:10;;;;;;;;;;;;;;;19.46;57.27;100510.09;5077034;28;767;-39
2021/07/11 06:44:36;;;;;;;;;;;;;;;19.42;57.54;100506.00;5080511;28;752;-38
2021/07/11 06:47:03;;;;;;;;;;;;;;;19.40;57.61;100506.13;5080429;28;823;-42
2021/07/11 06:49:28;;;;;;;;;;;;;;;22.21;52.98;100505.78;5079905;28;1959;-37
2021/07/11 06:51:53;;;;;;;;;;;;;;;23.79;52.99;100504.84;5079873;28;992;-39
2021/07/11 06:54:19;;;;;;;;;;;;;;;24.54;46.40;100502.16;5079699;28;795;-38
2021/07/11 06:56:44;;;;;;;;;;;;;;;24.58;47.46;100507.00;5079795;28;1313;-45
2021/07/11 06:59:09;;;;;;;;;;;;;;;21.01;53.79;100504.06;5079954;28;1013;-35
2021/07/11 07:01:34;;;;;;;;;;;;;;;20.18;56.16;100506.38;5079714;28;815;-37
2021/07/11 07:04:00;;;;;;;;;;;;;;;19.81;56.95;100506.06;5079450;28;1060;-36
2021/07/11 07:06:25;;;;;;;;;;;;;;;19.70;57.09;100499.03;5079615;28;787;-35
2021/07/11 07:08:50;;;;;;;;;;;;;;;19.72;57.28;100501.56;5079174;28;1902;-35
2021/07/11 07:11:16;;;;;;;;;;;;;;;19.63;57.54;100499.72;5079789;28;744;-36
2021/07/11 07:13:41;;;;;;;;;;;;;;;22.25;53.11;100506.34;5079617;28;803;-36
2021/07/11 07:16:06;;;;;;;;;;;;;;;23.89;47.95;100508.19;5079553;28;792;-34
2021/07/11 07:18:31;;;;;;;;;;;;;;;20.57;55.28;100500.09;5079080;28;954;-35
2021/07/11 07:20:57;;;;;;;;;;;;;;;19.92;56.72;100496.22;5079576;28;808;-35
2021/07/11 07:23:22;;;;;;;;;;;;;;;19.58;57.65;100494.81;5079244;28;784;-34
2021/07/11 07:25:47;;;;;;;;;;;;;;;19.52;57.69;100496.19;5079471;28;752;-32
2021/07/11 07:28:12;;;;;;;;;;;;;;;19.42;58.27;100496.19;5079502;28;1969;-46
2021/07/11 07:30:38;;;;;;;;;;;;;;;20.01;62.97;100498.06;5079306;28;752;-32
2021/07/11 07:33:03;;;;;;;;;;;;;;;23.01;50.30;100497.75;5078801;28;815;-36
2021/07/11 07:35:28;;;;;;;;;;;;;;;20.94;53.58;100502.97;5079117;28;998;-36
2021/07/11 07:37:54;;;;;;;;;;;;;;;19.82;57.24;100501.56;5079401;28;760;-33
2021/07/11 07:40:19;;;;;;;;;;;;;;;19.55;58.01;100501.25;5079189;28;859;-35
2021/07/11 07:42:45;;;;;;;;;;;;;;;19.43;58.39;100497.03;5079104;28;779;-36
2021/07/11 07:45:10;;;;;;;;;;;;;;;19.27;59.05;100497.56;5078739;28;807;-35
2021/07/11 07:47:35;;;;;;;;;;;;;;;19.32;60.51;100496.16;5079366;28;1906;-34
2021/07/11 07:50:01;;;;;;;;;;;;;;;22.39;52.68;100497.72;5078977;28;959;-37
2021/07/11 07:52:27;;;;;;;;;;;;;;;21.77;51.57;100502.03;5078700;28;842;-32
2021/07/11 07:54:52;;;;;;;;;;;;;;;20.01;57.30;100495.38;5077580;28;1092;-40
2021/07/11 07:57:17;;;;;;;;;;;;;;;19.65;58.01;100503.94;5079107;28;747;-35
2021/07/11 07:59:43;;;;;;;;;;;;;;;19.42;58.95;100506.00;5078590;28;788;-35
2021/07/11 08:02:08;;;;;;;;;;;;;;;19.40;59.15;100506.13;5078850;28;780;-34
2021/07/11 08:04:33;;;;;;;;;;;;;;;19.35;59.21;100502.22;5078342;28;974;-46
2021/07/11 08:06:58;;;;;;;;;;;;;;;21.29;57.15;100502.22;5078363;28;768;-30
2021/07/11 08:09:24;;;;;;;;;;;;;;;23.23;50.81;100512.44;5079068;28;1918;-47
2021/07/11 08:11:49;;;;;;;;;;;;;;;20.11;56.90;100502.56;5078452;28;807;-36
2021/07/11 08:14:14;;;;;;;;;;;;;;;19.54;58.09;100506.72;5078147;28;740;-34
2021/07/11 08:16:42;;;;;;;;;;;;;;;19.41;58.61;100502.50;5078781;28;797;-37
2021/07/11 08:19:08;;;;;;;;;;;;;;;19.36;58.79;100502.06;5078156;28;958;-34
2021/07/11 08:21:33;;;;;;;;;;;;;;;19.32;58.76;100497.97;5078016;28;707;-38
2021/07/11 08:23:58;;;;;;;;;;;;;;;20.83;58.76;100506.63;5078159;28;801;-47
2021/07/11 08:26:24;;;;;;;;;;;;;;;23.21;49.58;100510.88;5078597;28;755;-47
2021/07/11 08:28:49;;;;;;;;;;;;;;;20.61;54.59;100503.31;5077550;28;1906;-36
2021/07/11 08:31:14;;;;;;;;;;;;;;;19.75;57.45;100501.28;5078631;28;795;-38
2021/07/11 08:33:40;;;;;;;;;;;;;;;19.49;58.48;100504.47;5077824;28;963;-36
2021/07/11 08:36:05;;;;;;;;;;;;;;;19.33;58.87;100499.69;5077752;28;851;-37
2021/07/11 08:38:30;;;;;;;;;;;;;;;19.39;58.98;100511.59;5078346;28;748;-36
2021/07/11 08:40:56;;;;;;;;;;;;;;;19.42;60.80;100501.50;5078121;28;779;-34
2021/07/11 08:43:21;;;;;;;;;;;;;;;22.46;52.23;100505.13;5059925;28;807;-36
2021/07/11 08:45:46;;;;;;;;;;;;;;;21.16;52.83;100502.59;5060155;28;883;-36
2021/07/11 08:48:12;;;;;;;;;;;;;;;19.90;57.37;100501.69;5059934;28;1969;-36
2021/07/11 08:50:37;;;;;;;;;;;;;;;19.48;58.68;100507.28;5077184;28;907;-33
2021/07/11 08:53:02;;;;;;;;;;;;;;;19.39;58.68;100496.47;5077907;28;882;-36
2021/07/11 08:55:28;;;;;;;;;;;;;;;19.40;59.00;100500.81;5077245;28;1361;-36
2021/07/11 08:58:00;;;;;;;;;;;;;;;19.40;58.82;100497.31;5077943;28;819;-36
2021/07/11 09:00:29;;;;;;;;;;;;;;;22.03;53.87;100500.47;5078070;28;740;-33
2021/07/11 09:02:55;;;;;;;;;;;;;;;21.35;52.54;100500.81;5077513;28;845;-46
2021/07/11 09:05:39;;;;;;;;;;;;;;;19.96;57.29;100497.63;5076870;28;1025;-34
2021/07/11 09:08:23;;;;;;;;;;;;;;;19.50;58.43;100503.50;5077323;28;1906;-33
2021/07/11 09:10:51;;;;;;;;;;;;;;;19.49;58.49;100492.94;5077322;28;800;-36
2021/07/11 09:13:17;;;;;;;;;;;;;;;19.33;59.17;100500.50;5076120;28;1163;-32
2021/07/11 09:15:45;;;;;;;;;;;;;;;19.32;60.78;100497.97;5077070;28;747;-40
2021/07/11 09:18:10;;;;;;;;;;;;;;;22.37;52.43;100501.56;5077260;28;779;-37
2021/07/11 09:20:49;;;;;;;;;;;;;;;21.23;52.32;100497.50;5058607;28;1034;-34
2021/07/11 09:23:14;;;;;;;;;;;;;;;19.83;57.96;100490.75;5076906;28;778;-40
2021/07/11 09:25:39;;;;;;;;;;;;;;;19.43;58.78;100492.56;5077101;28;795;-33
2021/07/11 09:28:11;;;;;;;;;;;;;;;19.25;58.81;100492.34;5076606;28;1902;-32
2021/07/11 09:30:37;;;;;;;;;;;;;;;19.24;59.28;100488.00;5076867;28;766;-35
2021/07/11 09:33:02;;;;;;;;;;;;;;;19.20;59.40;100483.94;5077209;28;763;-36
2021/07/11 09:35:27;;;;;;;;;;;;;;;22.04;53.95;100480.72;5076776;28;943;-41
2021/07/11 09:37:58;;;;;;;;;;;;;;;21.80;52.02;100489.38;5076957;28;776;-44
2021/07/11 09:40:24;;;;;;;;;;;;;;;19.89;57.71;100486.69;5076500;28;833;-37
2021/07/11 09:42:50;;;;;;;;;;;;;;;19.50;58.50;100486.66;5076634;28;771;-35
2021/07/11 09:45:16;;;;;;;;;;;;;;;19.37;58.97;100489.59;5076650;28;837;-44
2021/07/11 09:47:42;;;;;;;;;;;;;;;19.32;59.14;100488.16;5076616;28;1901;-43
2021/07/11 09:50:11;;;;;;;;;;;;;;;19.25;59.46;100483.53;5076213;28;955;-36
2021/07/11 09:52:39;;;;;;;;;;;;;;;21.22;57.53;100487.75;5076323;28;756;-34
2021/07/11 09:55:19;;;;;;;;;;;;;;;23.36;50.20;100489.63;5076626;28;1098;-41
2021/07/11 09:57:46;;;;;;;;;;;;;;;20.12;57.33;100486.41;5076133;28;832;-36
2021/07/11 10:00:12;;;;;;;;;;;;;;;19.57;58.42;100479.75;5077013;28;780;-35
2021/07/11 10:02:38;;;;;;;;;;;;;;;19.29;59.10;100483.09;5076961;28;752;-36
2021/07/11 10:05:04;;;;;;;;;;;;;;;19.25;58.86;100479.00;5075783;28;958;-34
2021/07/11 10:07:31;;;;;;;;;;;;;;;19.21;59.16;100478.47;5076640;28;1930;-33
2021/07/11 10:09:56;;;;;;;;;;;;;;;19.78;63.67;100486.81;5077047;28;812;-33
2021/07/11 10:12:21;;;;;;;;;;;;;;;22.74;51.89;100483.53;5057995;28;815;-35
2021/07/11 10:14:47;;;;;;;;;;;;;;;20.94;53.87;100476.25;5076715;28;784;-34
2021/07/11 10:17:13;;;;;;;;;;;;;;;19.74;57.90;100478.25;5079185;28;867;-33
2021/07/11 10:19:38;;;;;;;;;;;;;;;19.38;58.56;100467.25;5082299;28;915;-36
2021/07/11 10:22:10;;;;;;;;;;;;;;;19.32;58.82;100463.31;5083295;28;835;-42
2021/07/11 10:24:43;;;;;;;;;;;;;;;19.25;58.80;100464.84;5083622;28;759;-38
2021/07/11 10:27:26;;;;;;;;;;;;;;;19.21;59.33;100459.78;5082799;28;834;-37
2021/07/11 10:29:52;;;;;;;;;;;;;;;21.63;56.13;100460.59;5083298;28;811;-42
2021/07/11 10:32:27;;;;;;;;;;;;;;;23.45;50.11;100463.69;5082822;28;806;-38
2021/07/11 10:34:52;;;;;;;;;;;;;;;20.26;56.18;100457.56;5082520;28;1021;-44
2021/07/11 10:37:22;;;;;;;;;;;;;;;19.58;58.13;100446.78;5082961;28;831;-44
2021/07/11 10:39:50;;;;;;;;;;;;;;;19.38;58.42;100443.25;5083517;28;812;-37
2021/07/11 10:42:15;;;;;;;;;;;;;;;19.25;58.74;100432.84;5082552;28;775;-43
2021/07/11 10:44:40;;;;;;;;;;;;;;;19.22;58.85;100436.63;5064719;28;1235;-43
2021/07/11 10:47:06;;;;;;;;;;;;;;;19.18;58.90;100428.06;5064553;28;821;-41
2021/07/11 10:49:32;;;;;;;;;;;;;;;20.67;59.82;100433.25;5082054;28;1977;-43
2021/07/11 10:52:01;;;;;;;;;;;;;;;23.20;49.90;100432.25;5082972;28;745;-37
2021/07/11 10:54:28;;;;;;;;;;;;;;;24.05;48.05;100426.78;5082895;28;772;-36
2021/07/11 10:56:54;;;;;;;;;;;;;;;24.40;50.33;100434.63;5082095;28;776;-42
2021/07/11 10:59:29;;;;;;;;;;;;;;;21.21;53.59;100437.94;5083015;28;748;-43
2021/07/11 11:01:54;;;;;;;;;;;;;;;19.90;57.44;100426.13;5082736;28;775;-43
2021/07/11 11:04:20;;;;;;;;;;;;;;;19.68;57.53;100434.28;5082271;28;978;-38
2021/07/11 11:06:45;;;;;;;;;;;;;;;19.51;58.39;100430.50;5082945;28;806;-38
2021/07/11 11:09:11;;;;;;;;;;;;;;;19.37;58.39;100428.25;5082716;28;1980;-46
2021/07/11 11:11:36;;;;;;;;;;;;;;;19.34;58.72;100434.69;5082162;28;768;-39
2021/07/11 11:14:02;;;;;;;;;;;;;;;19.91;63.27;100430.47;5082898;28;843;-35
2021/07/11 11:16:31;;;;;;;;;;;;;;;22.96;50.94;100439.22;5082455;28;756;-38
2021/07/11 11:18:56;;;;;;;;;;;;;;;20.62;54.77;100425.69;5081999;28;1205;-39
2021/07/11 11:21:22;;;;;;;;;;;;;;;19.67;57.96;100434.41;5082713;28;807;-43
2021/07/11 11:23:57;;;;;;;;;;;;;;;19.33;58.32;100422.34;5082348;28;756;-45
2021/07/11 11:26:26;;;;;;;;;;;;;;;19.29;58.66;100424.44;5082285;28;831;-39
2021/07/11 11:28:52;;;;;;;;;;;;;;;19.32;58.79;100425.97;5080951;28;1923;-40
2021/07/11 11:31:29;;;;;;;;;;;;;;;19.36;58.69;100429.19;5079499;28;821;-38
2021/07/11 11:33:55;;;;;;;;;;;;;;;21.70;55.59;100447.44;5078789;28;1006;-42
2021/07/11 11:36:21;;;;;;;;;;;;;;;23.55;49.74;100450.97;5078619;28;814;-34
2021/07/11 11:38:46;;;;;;;;;;;;;;;20.27;56.85;100453.94;5079128;28;851;-36
2021/07/11 11:41:12;;;;;;;;;;;;;;;19.58;58.14;100457.47;5078971;28;748;-36
2021/07/11 11:43:37;;;;;;;;;;;;;;;19.32;58.43;100450.81;5079378;28;748;-37
2021/07/11 11:46:03;;;;;;;;;;;;;;;19.20;58.80;100454.59;5079316;28;720;-37
2021/07/11 11:48:30;;;;;;;;;;;;;;;19.24;58.76;100452.47;5077927;28;1989;-35
2021/07/11 11:51:00;;;;;;;;;;;;;;;20.03;62.11;100495.25;5078597;28;697;-34
2021/07/11 11:53:25;;;;;;;;;;;;;;;23.01;49.89;100521.88;5079192;28;760;-36
2021/07/11 11:55:51;;;;;;;;;;;;;;;23.92;48.25;100550.84;5078727;28;1144;-38
2021/07/11 11:58:23;;;;;;;;;;;;;;;24.41;49.46;100557.28;5078733;28;827;-38
2021/07/11 12:00:57;;;;;;;;;;;;;;;21.82;51.64;100554.34;5078441;28;1047;-37
2021/07/11 12:03:23;;;;;;;;;;;;;;;20.04;56.44;100547.69;5077874;28;887;-38
2021/07/11 12:05:48;;;;;;;;;;;;;;;19.57;57.22;100539.31;5078526;28;939;-34
2021/07/11 12:08:13;;;;;;;;;;;;;;;19.45;57.86;100545.75;5060620;28;1918;-37
2021/07/11 12:10:38;;;;;;;;;;;;;;;19.25;58.11;100567.00;5078236;28;763;-38
2021/07/11 12:13:04;;;;;;;;;;;;;;;19.25;58.01;100559.00;5060455;28;1299;-35
2021/07/11 12:15:36;;;;;;;;;;;;;;;20.13;61.35;100546.00;5078465;28;804;-36
2021/07/11 12:18:05;;;;;;;;;;;;;;;23.08;49.44;100548.91;5077975;28;819;-38
2021/07/11 12:20:31;;;;;;;;;;;;;;;24.01;47.74;100532.03;5077715;28;947;-39
2021/07/11 12:22:56;;;;;;;;;;;;;;;24.39;49.81;100526.22;5078922;28;795;-38
2021/07/11 12:25:30;;;;;;;;;;;;;;;24.85;45.36;100525.59;5077984;28;737;-38
2021/07/11 12:28:01;;;;;;;;;;;;;;;24.76;47.19;100518.53;5077642;28;1902;-38
2021/07/11 12:30:32;;;;;;;;;;;;;;;20.78;53.98;100523.97;5078590;28;795;-37
2021/07/11 12:32:58;;;;;;;;;;;;;;;19.90;56.42;100514.22;5077802;28;839;-34
2021/07/11 12:35:24;;;;;;;;;;;;;;;19.53;57.03;100516.56;5077842;28;951;-36
2021/07/11 12:37:50;;;;;;;;;;;;;;;19.25;57.36;100518.19;5078022;28;819;-36
2021/07/11 12:40:16;;;;;;;;;;;;;;;19.18;57.62;100512.56;5077099;28;811;-36
2021/07/11 12:42:41;;;;;;;;;;;;;;;19.20;57.17;100505.25;5078049;28;768;-35
2021/07/11 12:45:15;;;;;;;;;;;;;;;21.96;52.52;100507.44;5078040;28;812;-36
2021/07/11 12:47:47;;;;;;;;;;;;;;;23.44;51.45;100519.22;5077385;28;1963;-38
2021/07/11 12:50:12;;;;;;;;;;;;;;;24.38;45.46;100514.59;5077493;28;950;-39